Time;durP1;ratioP1;P1;durP2;ratioP2;P2;SDS_P1;SDS_P2;PMS_P1;PMS_P2;Temp;Humidity;BMP_temperature;BMP_pressure;BME280_temperature;BME280_humidity;BME280_pressure;Samples;Min_cycle;Max_cycle;Signal;HPM_P1;HPM_P2
2022/05/16 00:01:08;;;;;;;;;;;19.00;99.90;;;;;;4980860;28;19969;-83
2022/05/16 00:03:33;;;;;;;;;;;19.20;99.90;;;;;;4981270;28;19914;-84
2022/05/16 00:05:59;;;;;;;;;;;19.20;99.90;;;;;;4980948;28;20001;-86
2022/05/16 00:08:25;;;;;;;;;;;19.20;99.90;;;;;;4980995;28;19910;-83
2022/05/16 00:10:50;;;;;;;;;;;19.30;99.90;;;;;;4980558;28;19938;-83
2022/05/16 00:13:16;;;;;;;;;;;19.30;99.90;;;;;;4980951;28;19918;-83
2022/05/16 00:15:41;;;;;;;;;;;19.30;99.90;;;;;;4980684;28;19928;-85
2022/05/16 00:18:07;;;;;;;;;;;19.40;99.90;;;;;;4963294;28;20413;-86
2022/05/16 00:20:33;;;;;;;;;;;19.30;99.90;;;;;;4980798;28;20401;-85
2022/05/16 00:22:58;;;;;;;;;;;19.10;99.90;;;;;;4980245;28;20344;-83
2022/05/16 00:25:24;;;;;;;;;;;19.00;99.90;;;;;;4980770;28;19917;-83
2022/05/16 00:27:49;;;;;;;;;;;18.90;99.90;;;;;;4980771;28;19956;-86
2022/05/16 00:30:17;;;;;;;;;;;18.90;99.90;;;;;;4977320;28;20040;-86
2022/05/16 00:32:44;;;;;;;;;;;18.80;99.90;;;;;;4977640;28;19915;-84
2022/05/16 00:35:11;;;;;;;;;;;18.80;99.90;;;;;;4960237;28;19996;-86
2022/05/16 00:37:36;;;;;;;;;;;18.90;99.90;;;;;;4977675;28;19918;-84
2022/05/16 00:40:03;;;;;;;;;;;18.90;99.90;;;;;;4977393;28;19914;-83
2022/05/16 00:42:28;;;;;;;;;;;18.80;99.90;;;;;;4977598;28;19957;-85
2022/05/16 00:44:54;;;;;;;;;;;18.70;99.90;;;;;;4959940;28;19946;-87
2022/05/16 00:47:19;;;;;;;;;;;18.60;99.90;;;;;;4977332;28;19945;-86
2022/05/16 00:49:46;;;;;;;;;;;18.50;99.90;;;;;;4977377;28;20273;-83
2022/05/16 00:52:15;;;;;;;;;;;18.30;99.90;;;;;;4977423;28;19997;-89
2022/05/16 00:54:43;;;;;;;;;;;18.30;99.90;;;;;;4977177;28;19965;-89
2022/05/16 00:57:11;;;;;;;;;;;18.40;99.90;;;;;;4977155;28;20274;-88
2022/05/16 00:59:37;;;;;;;;;;;18.30;99.90;;;;;;4977108;28;19910;-83
2022/05/16 01:04:50;;;;;;;;;;;18.20;99.90;;;;;;4976947;28;19965;-83
2022/05/16 01:07:22;;;;;;;;;;;18.10;99.90;;;;;;4976942;28;19917;-87
2022/05/16 01:09:47;;;;;;;;;;;18.10;99.90;;;;;;4959468;28;19917;-83
2022/05/16 01:12:13;;;;;;;;;;;18.10;99.90;;;;;;4976914;28;20352;-86
2022/05/16 01:14:40;;;;;;;;;;;18.10;99.90;;;;;;4976699;28;20401;-82
2022/05/16 01:17:06;;;;;;;;;;;18.10;99.90;;;;;;4976884;28;20333;-83
2022/05/16 01:19:31;;;;;;;;;;;18.00;99.90;;;;;;4976931;28;19910;-83
2022/05/16 01:21:59;;;;;;;;;;;18.10;99.90;;;;;;4976655;28;19910;-86
2022/05/16 01:24:25;;;;;;;;;;;18.10;99.90;;;;;;4976549;28;19910;-83
2022/05/16 01:26:52;;;;;;;;;;;18.20;99.90;;;;;;4975541;28;19917;-86
2022/05/16 01:29:19;;;;;;;;;;;18.20;99.90;;;;;;4976571;28;20258;-83
2022/05/16 01:31:45;;;;;;;;;;;18.20;99.90;;;;;;4976875;28;19910;-86
2022/05/16 01:34:11;;;;;;;;;;;18.30;99.90;;;;;;4976573;28;19924;-86
2022/05/16 01:36:37;;;;;;;;;;;18.30;99.90;;;;;;4976871;28;19942;-84
2022/05/16 01:39:02;;;;;;;;;;;18.30;99.90;;;;;;4976517;28;19910;-87
2022/05/16 01:41:28;;;;;;;;;;;18.30;99.90;;;;;;4976007;28;19917;-87
2022/05/16 01:43:55;;;;;;;;;;;18.40;99.90;;;;;;4976377;28;20263;-84
2022/05/16 01:46:28;;;;;;;;;;;18.30;99.90;;;;;;4976149;28;19954;-87
2022/05/16 01:48:54;;;;;;;;;;;18.30;99.90;;;;;;4976274;28;19954;-83
2022/05/16 01:51:20;;;;;;;;;;;18.40;99.90;;;;;;4976358;28;19910;-87
2022/05/16 01:53:46;;;;;;;;;;;18.30;99.90;;;;;;4976247;28;19925;-86
2022/05/16 01:56:11;;;;;;;;;;;18.30;99.90;;;;;;4976129;28;19917;-87
2022/05/16 01:58:37;;;;;;;;;;;18.30;99.90;;;;;;4976186;28;19910;-83
2022/05/16 02:01:03;;;;;;;;;;;18.30;99.90;;;;;;4975893;28;19918;-87
2022/05/16 02:03:29;;;;;;;;;;;18.40;99.90;;;;;;4976232;28;19918;-88
2022/05/16 02:05:55;;;;;;;;;;;18.40;99.90;;;;;;4974445;28;19910;-86
2022/05/16 02:08:20;;;;;;;;;;;18.40;99.90;;;;;;4975779;28;20293;-87
2022/05/16 02:10:46;;;;;;;;;;;18.40;99.90;;;;;;4975838;28;19917;-87
2022/05/16 02:13:12;;;;;;;;;;;18.30;99.90;;;;;;4975896;28;19918;-86
2022/05/16 02:15:38;;;;;;;;;;;18.30;99.90;;;;;;4975840;28;20025;-84
2022/05/16 02:18:05;;;;;;;;;;;18.40;99.90;;;;;;4958245;28;19917;-84
2022/05/16 02:20:30;;;;;;;;;;;18.40;99.90;;;;;;4975495;28;19911;-87
2022/05/16 02:25:42;;;;;;;;;;;18.40;99.90;;;;;;4975862;28;19960;-86
2022/05/16 02:28:14;;;;;;;;;;;18.40;99.90;;;;;;4975664;28;20334;-85
2022/05/16 02:30:40;;;;;;;;;;;18.40;99.90;;;;;;4975568;28;19910;-86
2022/05/16 02:33:06;;;;;;;;;;;18.20;99.90;;;;;;4975313;28;19920;-86
2022/05/16 02:35:32;;;;;;;;;;;18.20;99.90;;;;;;4975711;28;19910;-86
2022/05/16 02:37:58;;;;;;;;;;;18.10;99.90;;;;;;4975542;28;19917;-83
2022/05/16 02:40:25;;;;;;;;;;;18.10;99.90;;;;;;4975415;28;19917;-84
2022/05/16 02:42:50;;;;;;;;;;;18.00;99.90;;;;;;4975548;28;19918;-84
2022/05/16 02:45:16;;;;;;;;;;;17.90;99.90;;;;;;4975260;28;20384;-86
2022/05/16 02:47:41;;;;;;;;;;;17.90;99.90;;;;;;4975058;28;20064;-84
2022/05/16 02:50:07;;;;;;;;;;;17.80;99.90;;;;;;4975301;28;20321;-84
2022/05/16 02:52:33;;;;;;;;;;;17.80;99.90;;;;;;4974463;28;19910;-86
2022/05/16 02:55:01;;;;;;;;;;;17.70;99.90;;;;;;4975185;28;19918;-85
2022/05/16 02:57:28;;;;;;;;;;;17.70;99.90;;;;;;4975364;28;20392;-86
2022/05/16 02:59:54;;;;;;;;;;;17.70;99.90;;;;;;4975077;28;19964;-86
2022/05/16 03:02:19;;;;;;;;;;;17.80;99.90;;;;;;4975020;28;19910;-85
2022/05/16 03:04:45;;;;;;;;;;;17.80;99.90;;;;;;4974978;28;20388;-86
2022/05/16 03:07:10;;;;;;;;;;;17.80;99.90;;;;;;4974890;28;19916;-86
2022/05/16 03:09:36;;;;;;;;;;;17.90;99.90;;;;;;4975005;28;20255;-84
2022/05/16 03:12:02;;;;;;;;;;;18.00;99.90;;;;;;4974943;28;20278;-85
2022/05/16 03:14:27;;;;;;;;;;;18.00;99.90;;;;;;4975154;28;19918;-86
2022/05/16 03:16:53;;;;;;;;;;;18.10;99.90;;;;;;4974917;28;19921;-86
2022/05/16 03:19:18;;;;;;;;;;;18.10;99.90;;;;;;4975047;28;20345;-83
2022/05/16 03:21:44;;;;;;;;;;;18.10;99.90;;;;;;4974934;28;19910;-85
2022/05/16 03:24:09;;;;;;;;;;;18.10;99.90;;;;;;4974820;28;19910;-84
2022/05/16 03:26:35;;;;;;;;;;;18.10;99.90;;;;;;4974790;28;19917;-85
2022/05/16 03:29:01;;;;;;;;;;;18.20;99.90;;;;;;4974708;28;19911;-85
2022/05/16 03:31:27;;;;;;;;;;;18.20;99.90;;;;;;4974693;28;20013;-84
2022/05/16 03:33:52;;;;;;;;;;;18.20;99.90;;;;;;4974625;28;20005;-86
2022/05/16 03:36:18;;;;;;;;;;;18.20;99.90;;;;;;4974745;28;19953;-86
2022/05/16 03:41:28;;;;;;;;;;;18.20;99.90;;;;;;4974687;28;19917;-84
2022/05/16 03:43:53;;;;;;;;;;;18.20;99.90;;;;;;4974607;28;19910;-85
2022/05/16 03:46:19;;;;;;;;;;;18.20;99.90;;;;;;4974646;28;19910;-84
2022/05/16 03:48:45;;;;;;;;;;;18.10;99.90;;;;;;4974666;28;20009;-84
2022/05/16 03:51:12;;;;;;;;;;;18.20;99.90;;;;;;4974829;28;19910;-85
2022/05/16 03:53:46;;;;;;;;;;;18.20;99.90;;;;;;4974567;28;19922;-86
2022/05/16 03:56:15;;;;;;;;;;;18.20;99.90;;;;;;4974782;28;20366;-85
2022/05/16 03:58:41;;;;;;;;;;;18.20;99.90;;;;;;4974850;28;19914;-85
2022/05/16 04:01:08;;;;;;;;;;;18.20;99.90;;;;;;4974595;28;19914;-86
2022/05/16 04:03:34;;;;;;;;;;;18.20;99.90;;;;;;4974619;28;19914;-85
2022/05/16 04:06:00;;;;;;;;;;;18.20;99.90;;;;;;4977319;28;20293;-86
2022/05/16 04:08:26;;;;;;;;;;;18.20;99.90;;;;;;4977935;28;19910;-84
2022/05/16 04:10:51;;;;;;;;;;;18.20;99.90;;;;;;4978075;28;19910;-85
2022/05/16 04:13:17;;;;;;;;;;;18.10;99.90;;;;;;4977691;28;19914;-83
2022/05/16 04:15:43;;;;;;;;;;;18.20;99.90;;;;;;4978498;28;19934;-85
2022/05/16 04:18:08;;;;;;;;;;;18.20;99.90;;;;;;4978085;28;19910;-84
2022/05/16 04:20:34;;;;;;;;;;;18.20;99.90;;;;;;4977828;28;19996;-85
2022/05/16 04:22:59;;;;;;;;;;;18.20;99.90;;;;;;4977942;28;20362;-85
2022/05/16 04:25:25;;;;;;;;;;;18.20;99.90;;;;;;4982549;28;19913;-84
2022/05/16 04:27:51;;;;;;;;;;;18.20;99.90;;;;;;4988037;28;19957;-85
2022/05/16 04:30:17;;;;;;;;;;;18.30;99.90;;;;;;4987279;28;19906;-83
2022/05/16 04:32:43;;;;;;;;;;;18.20;99.90;;;;;;4987445;28;20201;-83
2022/05/16 04:35:09;;;;;;;;;;;18.20;99.90;;;;;;4987800;28;19912;-84
2022/05/16 04:37:34;;;;;;;;;;;18.20;99.90;;;;;;4988317;28;19914;-83
2022/05/16 04:40:00;;;;;;;;;;;18.30;99.90;;;;;;4988380;28;19945;-83
2022/05/16 04:42:41;;;;;;;;;;;18.30;99.90;;;;;;4987826;28;19913;-83
2022/05/16 04:45:07;;;;;;;;;;;18.30;99.90;;;;;;4987866;28;19906;-83
2022/05/16 04:47:33;;;;;;;;;;;18.30;99.90;;;;;;4987791;28;20309;-84
2022/05/16 04:49:58;;;;;;;;;;;18.30;99.90;;;;;;4987645;28;19906;-85
2022/05/16 04:52:24;;;;;;;;;;;18.30;99.90;;;;;;4986619;28;19906;-83
2022/05/16 04:54:51;;;;;;;;;;;18.30;99.90;;;;;;4987539;28;20102;-83
2022/05/16 04:57:17;;;;;;;;;;;18.30;99.90;;;;;;4986210;28;19969;-83
2022/05/16 04:59:46;;;;;;;;;;;18.40;99.90;;;;;;4986640;28;20238;-83
2022/05/16 05:02:12;;;;;;;;;;;18.40;99.90;;;;;;4987167;28;19913;-83
2022/05/16 05:04:38;;;;;;;;;;;18.40;99.90;;;;;;4987193;28;19907;-85
2022/05/16 05:07:03;;;;;;;;;;;18.40;99.90;;;;;;4987881;28;19944;-83
2022/05/16 05:09:29;;;;;;;;;;;18.40;99.90;;;;;;4987718;28;19996;-83
2022/05/16 05:14:41;;;;;;;;;;;18.50;99.90;;;;;;4987134;28;19977;-85
2022/05/16 05:17:08;;;;;;;;;;;18.60;99.90;;;;;;4986958;28;19907;-87
2022/05/16 05:19:35;;;;;;;;;;;18.60;99.90;;;;;;4986435;28;19913;-83
2022/05/16 05:22:01;;;;;;;;;;;18.60;99.90;;;;;;4985001;28;19906;-83
2022/05/16 05:24:26;;;;;;;;;;;18.70;99.90;;;;;;4986212;28;19941;-83
2022/05/16 05:26:53;;;;;;;;;;;18.70;99.90;;;;;;4986006;28;19906;-81
2022/05/16 05:29:19;;;;;;;;;;;18.80;99.90;;;;;;4986466;28;19913;-83
2022/05/16 05:31:45;;;;;;;;;;;18.90;99.90;;;;;;4986244;28;19929;-82
2022/05/16 05:34:11;;;;;;;;;;;18.90;99.90;;;;;;4987080;28;19953;-82
2022/05/16 05:36:38;;;;;;;;;;;18.90;99.90;;;;;;4987254;28;20212;-82
2022/05/16 05:39:04;;;;;;;;;;;19.00;99.90;;;;;;4987078;28;19907;-82
2022/05/16 05:41:30;;;;;;;;;;;19.00;99.90;;;;;;4987213;28;20205;-84
2022/05/16 05:43:56;;;;;;;;;;;18.90;99.90;;;;;;4986573;28;19906;-82
2022/05/16 05:46:21;;;;;;;;;;;19.00;99.90;;;;;;4986724;28;20215;-81
2022/05/16 05:48:47;;;;;;;;;;;18.90;99.90;;;;;;4986261;28;19942;-83
2022/05/16 05:51:14;;;;;;;;;;;18.90;99.90;;;;;;4968083;28;19906;-81
2022/05/16 05:53:41;;;;;;;;;;;18.70;99.90;;;;;;4984913;28;19956;-82
2022/05/16 05:56:07;;;;;;;;;;;18.70;99.90;;;;;;4986668;28;20216;-84
2022/05/16 05:58:33;;;;;;;;;;;18.80;99.90;;;;;;4986456;28;19906;-85
2022/05/16 06:01:02;;;;;;;;;;;18.90;99.90;;;;;;4986635;28;19906;-82
2022/05/16 06:03:28;;;;;;;;;;;18.90;99.90;;;;;;4968815;28;20086;-84
2022/05/16 06:05:53;;;;;;;;;;;19.00;99.90;;;;;;4986588;28;19949;-83
2022/05/16 06:08:19;;;;;;;;;;;19.10;99.90;;;;;;4986700;28;19906;-84
2022/05/16 06:10:45;;;;;;;;;;;19.10;99.90;;;;;;4986712;28;19906;-87
2022/05/16 06:13:10;;;;;;;;;;;19.00;99.90;;;;;;4984803;28;19920;-81
2022/05/16 06:15:36;;;;;;;;;;;19.10;99.90;;;;;;4986273;28;19918;-82
2022/05/16 06:18:02;;;;;;;;;;;19.00;99.90;;;;;;4986697;28;19946;-81
2022/05/16 06:20:27;;;;;;;;;;;19.10;99.90;;;;;;4985950;28;19946;-82
2022/05/16 06:22:54;;;;;;;;;;;19.10;99.90;;;;;;4986125;28;20225;-82
2022/05/16 06:25:32;;;;;;;;;;;19.10;99.90;;;;;;4985001;28;20274;-82
2022/05/16 06:28:06;;;;;;;;;;;19.10;99.90;;;;;;4984222;28;19918;-79
2022/05/16 06:30:32;;;;;;;;;;;19.00;99.90;;;;;;4985553;28;19977;-79
2022/05/16 06:32:58;;;;;;;;;;;19.00;99.90;;;;;;4985825;28;19914;-85
2022/05/16 06:35:24;;;;;;;;;;;18.90;99.90;;;;;;4984524;28;19906;-80
2022/05/16 06:37:49;;;;;;;;;;;18.80;99.90;;;;;;4986233;28;19910;-79
2022/05/16 06:40:17;;;;;;;;;;;18.70;99.90;;;;;;4986130;28;19906;-81
2022/05/16 06:42:43;;;;;;;;;;;18.80;99.90;;;;;;4968548;28;19910;-81
2022/05/16 06:45:09;;;;;;;;;;;18.70;99.90;;;;;;4986345;28;19944;-79
2022/05/16 06:47:34;;;;;;;;;;;18.70;99.90;;;;;;4985433;28;19906;-80
2022/05/16 06:50:00;;;;;;;;;;;18.80;99.90;;;;;;4985469;28;19913;-79
2022/05/16 06:52:25;;;;;;;;;;;18.80;99.90;;;;;;4985628;28;19981;-80
2022/05/16 06:54:51;;;;;;;;;;;18.90;99.90;;;;;;4985400;28;19922;-80
2022/05/16 06:57:17;;;;;;;;;;;18.80;99.90;;;;;;4985487;28;19921;-79
2022/05/16 06:59:43;;;;;;;;;;;19.00;99.90;;;;;;4981642;28;19913;-80
2022/05/16 07:02:08;;;;;;;;;;;19.10;99.90;;;;;;4975840;28;20001;-82
2022/05/16 07:04:36;;;;;;;;;;;19.10;99.90;;;;;;4975169;28;20373;-86
2022/05/16 07:07:06;;;;;;;;;;;19.10;99.90;;;;;;4983596;28;19984;-83
2022/05/16 07:09:32;;;;;;;;;;;19.20;99.90;;;;;;4985505;28;19912;-85
2022/05/16 07:11:57;;;;;;;;;;;19.30;99.90;;;;;;4984084;28;19906;-83
2022/05/16 07:14:23;;;;;;;;;;;19.30;99.90;;;;;;4978951;28;19930;-83
2022/05/16 07:16:48;;;;;;;;;;;19.40;99.90;;;;;;4974787;28;19918;-84
2022/05/16 07:19:14;;;;;;;;;;;19.40;99.90;;;;;;4975192;28;19910;-83
2022/05/16 07:21:39;;;;;;;;;;;19.50;99.90;;;;;;4974820;28;19957;-83
2022/05/16 07:24:05;;;;;;;;;;;19.40;99.90;;;;;;4974887;28;19965;-82
2022/05/16 07:29:15;;;;;;;;;;;19.50;99.90;;;;;;4975047;28;19938;-82
2022/05/16 07:31:40;;;;;;;;;;;19.60;99.90;;;;;;4974642;28;19910;-83
2022/05/16 07:34:06;;;;;;;;;;;19.70;99.90;;;;;;4974801;28;19918;-82
2022/05/16 07:36:31;;;;;;;;;;;19.70;99.90;;;;;;4974917;28;19910;-83
2022/05/16 07:38:57;;;;;;;;;;;19.80;99.90;;;;;;4976299;28;19911;-83
2022/05/16 07:41:22;;;;;;;;;;;19.90;99.90;;;;;;4979292;28;19946;-92
2022/05/16 07:43:48;;;;;;;;;;;20.10;99.90;;;;;;4978955;28;19910;-84
2022/05/16 07:46:13;;;;;;;;;;;20.20;99.90;;;;;;4979154;28;20020;-83
2022/05/16 07:48:39;;;;;;;;;;;20.30;99.90;;;;;;4978461;28;20408;-85
2022/05/16 07:51:04;;;;;;;;;;;20.30;99.90;;;;;;4978330;28;19915;-85
2022/05/16 07:53:30;;;;;;;;;;;20.40;99.90;;;;;;4978230;28;19914;-87
2022/05/16 07:55:56;;;;;;;;;;;20.50;99.90;;;;;;4978493;28;19910;-86
2022/05/16 07:58:22;;;;;;;;;;;20.40;99.90;;;;;;4978477;28;19910;-84
2022/05/16 08:00:49;;;;;;;;;;;20.50;99.90;;;;;;4978179;28;19916;-84
2022/05/16 08:03:15;;;;;;;;;;;20.60;99.90;;;;;;4978167;28;20282;-85
2022/05/16 08:05:42;;;;;;;;;;;20.70;99.90;;;;;;4978234;28;19921;-84
2022/05/16 08:10:52;;;;;;;;;;;20.90;99.90;;;;;;4978288;28;20294;-86
2022/05/16 08:13:17;;;;;;;;;;;21.00;99.90;;;;;;4960413;28;19918;-85
2022/05/16 08:15:43;;;;;;;;;;;21.10;99.90;;;;;;4977739;28;19937;-85
2022/05/16 08:18:10;;;;;;;;;;;21.20;99.90;;;;;;4977980;28;19958;-86
2022/05/16 08:20:37;;;;;;;;;;;21.20;99.90;;;;;;4977939;28;19910;-86
2022/05/16 08:23:04;;;;;;;;;;;21.30;99.90;;;;;;4977879;28;19910;-86
2022/05/16 08:25:29;;;;;;;;;;;21.40;99.90;;;;;;4978379;28;19953;-87
2022/05/16 08:27:56;;;;;;;;;;;21.60;99.90;;;;;;4977940;28;19937;-84
2022/05/16 08:30:23;;;;;;;;;;;21.60;99.90;;;;;;4977591;28;19914;-84
2022/05/16 08:32:48;;;;;;;;;;;21.60;99.90;;;;;;4976202;28;20366;-86
2022/05/16 08:35:14;;;;;;;;;;;21.70;99.90;;;;;;4977570;28;19938;-86
2022/05/16 08:40:30;;;;;;;;;;;22.00;99.90;;;;;;4977757;28;19969;-86
2022/05/16 08:43:15;;;;;;;;;;;22.10;99.90;;;;;;4977725;28;19993;-84
2022/05/16 08:45:43;;;;;;;;;;;22.10;99.90;;;;;;4977495;28;20330;-87
2022/05/16 08:48:14;;;;;;;;;;;22.30;99.90;;;;;;4977374;28;19965;-87
2022/05/16 08:50:41;;;;;;;;;;;22.40;99.90;;;;;;4959081;28;19917;-84
2022/05/16 08:53:18;;;;;;;;;;;22.50;99.90;;;;;;4977253;28;19921;-86
2022/05/16 08:55:47;;;;;;;;;;;22.60;99.90;;;;;;4977310;28;19925;-87
2022/05/16 08:58:15;;;;;;;;;;;22.60;99.90;;;;;;4977412;28;19910;-87
2022/05/16 09:00:48;;;;;;;;;;;22.70;99.90;;;;;;4977391;28;20274;-86
2022/05/16 09:03:15;;;;;;;;;;;22.90;99.90;;;;;;4977283;28;20401;-87
2022/05/16 09:05:47;;;;;;;;;;;23.00;99.90;;;;;;4977325;28;19910;-87
2022/05/16 09:08:16;;;;;;;;;;;23.00;99.90;;;;;;4976990;28;19910;-87
2022/05/16 09:10:51;;;;;;;;;;;23.10;99.90;;;;;;4976897;28;20318;-87
2022/05/16 09:13:16;;;;;;;;;;;23.10;99.90;;;;;;4976867;28;19918;-86
2022/05/16 09:15:53;;;;;;;;;;;23.20;99.90;;;;;;4976576;28;19944;-85
2022/05/16 09:18:24;;;;;;;;;;;23.30;99.90;;;;;;4959413;28;20329;-87
2022/05/16 09:20:50;;;;;;;;;;;23.40;99.90;;;;;;4976939;28;19933;-86
2022/05/16 09:23:25;;;;;;;;;;;23.50;99.90;;;;;;4977062;28;20361;-86
2022/05/16 09:26:00;;;;;;;;;;;23.60;99.90;;;;;;4959606;28;20277;-87
2022/05/16 09:28:34;;;;;;;;;;;23.60;99.80;;;;;;4976741;28;19916;-86
2022/05/16 09:31:03;;;;;;;;;;;23.70;99.20;;;;;;4976838;28;19953;-87
2022/05/16 09:33:29;;;;;;;;;;;23.60;99.90;;;;;;4976384;28;20374;-87
2022/05/16 09:35:58;;;;;;;;;;;23.70;99.80;;;;;;4976461;28;20011;-84
2022/05/16 09:38:23;;;;;;;;;;;23.80;99.90;;;;;;4976485;28;20082;-85
2022/05/16 09:40:58;;;;;;;;;;;23.80;99.90;;;;;;4976403;28;19932;-87
2022/05/16 09:43:24;;;;;;;;;;;24.00;99.60;;;;;;4976559;28;19920;-84
2022/05/16 09:45:54;;;;;;;;;;;24.10;99.70;;;;;;4976250;28;19941;-84
2022/05/16 09:48:22;;;;;;;;;;;24.20;98.90;;;;;;4976435;28;20322;-86
2022/05/16 09:51:01;;;;;;;;;;;24.20;99.20;;;;;;4976242;28;20425;-87
2022/05/16 09:53:36;;;;;;;;;;;24.20;98.50;;;;;;4958661;28;20404;-86
2022/05/16 09:56:24;;;;;;;;;;;24.30;98.60;;;;;;4958576;28;19933;-86
2022/05/16 09:58:51;;;;;;;;;;;24.40;99.00;;;;;;4976217;28;19942;-86
2022/05/16 10:01:35;;;;;;;;;;;24.50;98.40;;;;;;4976064;28;19964;-84
2022/05/16 10:04:14;;;;;;;;;;;24.60;97.60;;;;;;4976267;28;19910;-85
2022/05/16 10:06:43;;;;;;;;;;;24.60;97.60;;;;;;4976274;28;19910;-86
2022/05/16 10:09:10;;;;;;;;;;;24.70;98.00;;;;;;4975733;28;19917;-85
2022/05/16 10:11:37;;;;;;;;;;;24.80;97.10;;;;;;4975861;28;20370;-87
2022/05/16 10:14:03;;;;;;;;;;;24.80;96.20;;;;;;4975768;28;20289;-86
2022/05/16 10:16:31;;;;;;;;;;;24.80;96.80;;;;;;4974267;28;20287;-83
2022/05/16 10:18:59;;;;;;;;;;;24.80;96.50;;;;;;4975631;28;19911;-83
2022/05/16 10:21:30;;;;;;;;;;;24.80;96.40;;;;;;4975715;28;19910;-82
2022/05/16 10:23:56;;;;;;;;;;;25.00;96.90;;;;;;4975921;28;20352;-82
2022/05/16 10:26:23;;;;;;;;;;;25.20;96.50;;;;;;4975976;28;19917;-83
2022/05/16 10:28:51;;;;;;;;;;;25.30;95.60;;;;;;4975784;28;20370;-83
2022/05/16 10:34:14;;;;;;;;;;;25.40;95.60;;;;;;4974817;28;19925;-82
2022/05/16 10:36:42;;;;;;;;;;;25.50;95.40;;;;;;4975428;28;19933;-83
2022/05/16 10:39:14;;;;;;;;;;;25.40;94.70;;;;;;4975439;28;20382;-82
2022/05/16 10:41:50;;;;;;;;;;;25.40;95.70;;;;;;4975518;28;19936;-83
2022/05/16 10:44:31;;;;;;;;;;;25.40;94.70;;;;;;4975661;28;19910;-83
2022/05/16 10:47:14;;;;;;;;;;;25.40;95.50;;;;;;4975744;28;19956;-83
2022/05/16 10:49:51;;;;;;;;;;;25.50;95.20;;;;;;4975654;28;19911;-82
2022/05/16 10:52:23;;;;;;;;;;;25.50;94.80;;;;;;4975488;28;20289;-83
2022/05/16 10:54:48;;;;;;;;;;;25.60;94.70;;;;;;4973991;28;19918;-83
2022/05/16 10:57:14;;;;;;;;;;;25.70;94.70;;;;;;4975227;28;20263;-83
2022/05/16 10:59:57;;;;;;;;;;;25.90;95.00;;;;;;4975146;28;19957;-82
2022/05/16 11:02:45;;;;;;;;;;;26.20;95.00;;;;;;4975024;28;20009;-82
2022/05/16 11:05:28;;;;;;;;;;;26.60;94.90;;;;;;4975142;28;19910;-83
2022/05/16 11:08:09;;;;;;;;;;;26.50;93.60;;;;;;4975077;28;19914;-83
2022/05/16 11:10:34;;;;;;;;;;;26.50;94.60;;;;;;4957546;28;20009;-83
2022/05/16 11:13:09;;;;;;;;;;;26.90;94.20;;;;;;4974513;28;19957;-83
2022/05/16 11:15:39;;;;;;;;;;;27.00;93.60;;;;;;4974733;28;20420;-83
2022/05/16 11:18:27;;;;;;;;;;;27.30;93.80;;;;;;4974959;28;19914;-83
2022/05/16 11:21:11;;;;;;;;;;;27.50;93.80;;;;;;4947322;28;19910;-83
2022/05/16 11:24:00;;;;;;;;;;;27.60;92.90;;;;;;4974851;28;19914;-83
2022/05/16 11:26:33;;;;;;;;;;;27.10;92.80;;;;;;4966818;28;19910;-83
2022/05/16 11:29:17;;;;;;;;;;;27.00;93.40;;;;;;4974931;28;19957;-83
2022/05/16 11:31:46;;;;;;;;;;;26.90;94.00;;;;;;4974798;28;19937;-83
2022/05/16 11:34:17;;;;;;;;;;;26.70;93.50;;;;;;4974660;28;20417;-82
2022/05/16 11:36:52;;;;;;;;;;;26.40;93.90;;;;;;4973381;28;19911;-82
2022/05/16 11:39:24;;;;;;;;;;;25.90;94.50;;;;;;4973359;28;19910;-83
2022/05/16 11:41:50;;;;;;;;;;;25.90;94.90;;;;;;4974560;28;19911;-83
2022/05/16 11:44:15;;;;;;;;;;;26.00;94.80;;;;;;4974781;28;20255;-83
2022/05/16 11:47:07;;;;;;;;;;;26.30;94.90;;;;;;4974849;28;19910;-83
2022/05/16 11:49:38;;;;;;;;;;;26.70;94.60;;;;;;4951977;28;19964;-83
2022/05/16 11:52:12;;;;;;;;;;;26.90;95.00;;;;;;4974861;28;19957;-83
2022/05/16 11:54:40;;;;;;;;;;;27.20;94.40;;;;;;4973213;28;19918;-83
2022/05/16 12:03:06;;;;;;;;;;;26.50;95.10;;;;;;4974700;28;19910;-83
2022/05/16 12:05:37;;;;;;;;;;;26.20;94.80;;;;;;4974499;28;20356;-83
2022/05/16 12:08:12;;;;;;;;;;;26.10;95.30;;;;;;4974606;28;19933;-83
2022/05/16 12:10:52;;;;;;;;;;;26.20;95.90;;;;;;4974445;28;19964;-83
2022/05/16 12:13:23;;;;;;;;;;;26.40;95.80;;;;;;4956939;28;20402;-83
2022/05/16 12:16:09;;;;;;;;;;;26.80;95.40;;;;;;4974221;28;19922;-83
2022/05/16 12:18:38;;;;;;;;;;;27.00;94.90;;;;;;4974186;28;19956;-83
2022/05/16 12:21:05;;;;;;;;;;;27.20;94.90;;;;;;4974766;28;20412;-83
2022/05/16 12:23:43;;;;;;;;;;;27.20;95.00;;;;;;4974393;28;19910;-83
2022/05/16 12:26:09;;;;;;;;;;;27.30;95.30;;;;;;4975952;28;19917;-83
2022/05/16 12:28:34;;;;;;;;;;;27.30;95.30;;;;;;4977861;28;19918;-83
2022/05/16 12:31:00;;;;;;;;;;;27.40;95.20;;;;;;4977895;28;19917;-83
2022/05/16 12:33:26;;;;;;;;;;;27.60;95.20;;;;;;4977756;28;19918;-83
2022/05/16 12:35:53;;;;;;;;;;;27.60;94.80;;;;;;4977586;28;20025;-83
2022/05/16 12:38:21;;;;;;;;;;;27.50;95.30;;;;;;4977700;28;19917;-83
2022/05/16 12:40:56;;;;;;;;;;;27.70;95.30;;;;;;4960082;28;19913;-83
2022/05/16 12:43:23;;;;;;;;;;;27.70;95.30;;;;;;4977631;28;20002;-83
2022/05/16 12:46:02;;;;;;;;;;;27.90;95.20;;;;;;4978039;28;19910;-83
2022/05/16 12:48:40;;;;;;;;;;;27.80;95.10;;;;;;4960276;28;19910;-83
2022/05/16 12:51:14;;;;;;;;;;;27.90;95.20;;;;;;4977637;28;19917;-83
2022/05/16 12:53:46;;;;;;;;;;;28.00;95.10;;;;;;4977598;28;19983;-83
2022/05/16 12:56:12;;;;;;;;;;;28.00;95.40;;;;;;4977315;28;20358;-83
2022/05/16 12:58:38;;;;;;;;;;;27.90;95.30;;;;;;4977208;28;19914;-83
2022/05/16 13:01:10;;;;;;;;;;;27.70;95.50;;;;;;4977318;28;19914;-83
2022/05/16 13:03:44;;;;;;;;;;;27.80;95.90;;;;;;4975805;28;20046;-83
2022/05/16 13:06:28;;;;;;;;;;;28.10;95.50;;;;;;4977399;28;19964;-83
2022/05/16 13:09:00;;;;;;;;;;;28.10;95.70;;;;;;4975812;28;19914;-83
2022/05/16 13:11:40;;;;;;;;;;;28.20;95.70;;;;;;4977148;28;19917;-83
2022/05/16 13:14:17;;;;;;;;;;;28.20;95.50;;;;;;4977353;28;20362;-83
2022/05/16 13:16:54;;;;;;;;;;;28.30;95.70;;;;;;4977133;28;19922;-82
2022/05/16 13:19:23;;;;;;;;;;;28.10;95.80;;;;;;4976813;28;20008;-83
2022/05/16 13:21:56;;;;;;;;;;;28.30;95.50;;;;;;4976787;28;19993;-83
2022/05/16 13:24:23;;;;;;;;;;;28.30;95.60;;;;;;4976746;28;20017;-83
2022/05/16 13:29:34;;;;;;;;;;;27.60;96.50;;;;;;4977103;28;19921;-83
2022/05/16 13:32:08;;;;;;;;;;;27.80;96.70;;;;;;4976788;28;20301;-83
2022/05/16 13:34:38;;;;;;;;;;;28.40;95.90;;;;;;4991536;28;19957;-83
2022/05/16 13:37:07;;;;;;;;;;;28.80;95.70;;;;;;4958770;28;20001;-83
2022/05/16 13:39:34;;;;;;;;;;;28.90;95.50;;;;;;4976736;28;20305;-83
2022/05/16 13:42:00;;;;;;;;;;;29.40;95.60;;;;;;4959464;28;20378;-83
2022/05/16 13:44:33;;;;;;;;;;;29.60;95.00;;;;;;4976549;28;19917;-83
2022/05/16 13:47:00;;;;;;;;;;;29.60;95.20;;;;;;4958904;28;20388;-83
2022/05/16 13:49:26;;;;;;;;;;;29.90;95.00;;;;;;4976503;28;19988;-83
2022/05/16 13:51:52;;;;;;;;;;;30.10;94.90;;;;;;4976482;28;19969;-83
2022/05/16 13:54:19;;;;;;;;;;;30.50;95.20;;;;;;4976223;28;20386;-83
2022/05/16 13:56:53;;;;;;;;;;;32.20;93.80;;;;;;4976420;28;19910;-83
2022/05/16 13:59:26;;;;;;;;;;;31.90;93.80;;;;;;4976203;28;19910;-83
2022/05/16 14:01:58;;;;;;;;;;;33.30;93.00;;;;;;4976001;28;19910;-83
2022/05/16 14:04:26;;;;;;;;;;;34.10;91.40;;;;;;4976126;28;19914;-83
2022/05/16 14:06:53;;;;;;;;;;;33.90;91.50;;;;;;4976094;28;19985;-84
2022/05/16 14:09:19;;;;;;;;;;;35.10;91.10;;;;;;4976043;28;19910;-84
2022/05/16 14:11:46;;;;;;;;;;;36.10;89.80;;;;;;4974984;28;19925;-84
2022/05/16 14:14:12;;;;;;;;;;;36.40;89.50;;;;;;4976191;28;19965;-84
2022/05/16 14:16:39;;;;;;;;;;;35.00;88.90;;;;;;4975681;28;20389;-83
2022/05/16 14:19:10;;;;;;;;;;;33.90;90.50;;;;;;4975973;28;19972;-83
2022/05/16 14:21:48;;;;;;;;;;;34.50;90.60;;;;;;4958323;28;19910;-84
2022/05/16 14:24:15;;;;;;;;;;;36.00;88.20;;;;;;4958092;28;19956;-83
2022/05/16 14:26:40;;;;;;;;;;;35.80;87.40;;;;;;4975691;28;19910;-84
2022/05/16 14:29:25;;;;;;;;;;;36.60;87.00;;;;;;4975958;28;19918;-84
2022/05/16 14:31:59;;;;;;;;;;;37.60;84.80;;;;;;4975642;28;19910;-83
2022/05/16 14:34:31;;;;;;;;;;;35.90;85.60;;;;;;4975563;28;19934;-83
2022/05/16 14:37:06;;;;;;;;;;;35.50;85.70;;;;;;4975779;28;19910;-84
2022/05/16 14:39:39;;;;;;;;;;;35.20;85.70;;;;;;4975572;28;19960;-84
2022/05/16 14:42:06;;;;;;;;;;;35.10;85.70;;;;;;4975526;28;20370;-84
2022/05/16 14:44:55;;;;;;;;;;;35.30;86.10;;;;;;4957918;28;19958;-84
2022/05/16 14:47:29;;;;;;;;;;;37.50;81.90;;;;;;4952421;28;20293;-84
2022/05/16 14:49:55;;;;;;;;;;;37.20;81.00;;;;;;4975117;28;19910;-84
2022/05/16 14:52:25;;;;;;;;;;;37.30;80.50;;;;;;4975477;28;19910;-84
2022/05/16 14:55:11;;;;;;;;;;;37.30;80.40;;;;;;4975454;28;19918;-84